Scott AFB/Midamerica Airport
KBLV : now visible

Airfield :











YOU CAN JOIN US ON...

 
LOGIN :

Register | Disclaimer

   EN    FR    IT 

 









Legend :    VFR   Marginal VFR   IFR   Intensive IFR   Very Intensive IFR
Visi :
Ceiling :
>= 8 km
>= 3000ft
5 to 8 km
1000 to 3000 ft
1500m to 5 km
500 to 1000 ft
800 to 1500m
200 to 500 ft
< 800m
< 200 ft
Symbols :   Thunderstorms  Fog  Heavy snow  Heavy precipitations  Wind > 20 kt






- Airport Elevation : 459 ft


KBLV - Scott AFB/Midamerica

CURRENT METAR :
  • 280457Z 00000KT 1/2SM FG FEW040 19/19 A2988 RMK VIS 1 1/2V6 VIS 3/4 RWY14R SLP119 T01850185 RVR1100 $

EXPIRED METARs :
  • 280437Z 08003KT 1/2SM FG FEW040 18/18 A2988 RMK SLP119 $
  • 280356Z AUTO 00000KT 3/4SM R32L/2200V6000FT BR SCT042 18/18 A2988 RMK AO2 SLP119 T01830183 $
  • 280346Z AUTO 00000KT 1/2SM R32L/2000V5000FT BR FEW041 18/18 A2988 RMK AO2 SLP119 $
  • 280326Z AUTO 00000KT 5/8SM R32L/3500V4500FT BR CLR 18/18 A2988 RMK AO2 SLP119 $
  • 280306Z AUTO 00000KT 3/8SM R32L/1800V4000FT FG CLR 19/19 A2987 RMK AO2 SLP116 $
  • 280256Z AUTO 00000KT 3/4SM R32L/3500V5500FT BR CLR 19/19 A2987 RMK AO2 SLP116 60000 T01920192 52013 $

TAF AMD TAF KBLV
Valid from the 28 at 03:00 until the 29 at 06:00 UTC


280325Z 2803/2906 13006KT 0800 FG FEW040 QNH2984INS
TEMPO 2803/2807 0600 FG
BECMG 2814/2815 18006KT 8000 BR SCT020 QNH2987INS
BECMG 2817/2818 VRB06KT 9000 -SHRA BKN030 QNH2987INS
TEMPO 2818/2822 20010G20KT 3200 TSRA BKN020CB TX25/2821Z TN18/2809Z
KZKC FIR / North America



MET'MAP, your aeronautical weather chart ! - Copyright ORBIFLY December 2007 - Disclaimer

ORBIFLY MET'MAP TEAM :

Programming & Development : Alexandra Zaïnal
Concept & original design : Baudouin d'Aumeries
Assistance for programming : Marc-Olivier Méhu
Technical & hardware support : Manuel Goepfert

Contact : metmap@orbifly.com




SOURCES & CREDITS :

   NOAA       Earth
Advisory